sensor_id;sensor_type;location;lat;lon;timestamp;P1;durP1;ratioP1;P2;durP2;ratioP2
20531;SDS011;10424;52.102;8.084;2023-07-29T00:00:04;6.78;;;5.70;;
20531;SDS011;10424;52.102;8.084;2023-07-29T00:02:32;7.20;;;5.53;;
20531;SDS011;10424;52.102;8.084;2023-07-29T00:04:59;6.28;;;5.13;;
20531;SDS011;10424;52.102;8.084;2023-07-29T00:07:26;5.97;;;4.95;;
20531;SDS011;10424;52.102;8.084;2023-07-29T00:09:55;6.75;;;4.80;;
20531;SDS011;10424;52.102;8.084;2023-07-29T00:12:23;5.72;;;4.40;;
20531;SDS011;10424;52.102;8.084;2023-07-29T00:14:50;7.70;;;4.85;;
20531;SDS011;10424;52.102;8.084;2023-07-29T00:17:18;6.10;;;4.60;;
20531;SDS011;10424;52.102;8.084;2023-07-29T00:19:45;7.05;;;4.60;;
20531;SDS011;10424;52.102;8.084;2023-07-29T00:22:13;5.55;;;4.60;;
20531;SDS011;10424;52.102;8.084;2023-07-29T00:24:40;6.78;;;4.53;;
20531;SDS011;10424;52.102;8.084;2023-07-29T00:27:09;6.03;;;4.60;;
20531;SDS011;10424;52.102;8.084;2023-07-29T00:29:36;5.07;;;4.32;;
20531;SDS011;10424;52.102;8.084;2023-07-29T00:32:03;5.85;;;4.40;;
20531;SDS011;10424;52.102;8.084;2023-07-29T00:34:31;6.28;;;4.32;;
20531;SDS011;10424;52.102;8.084;2023-07-29T00:36:58;5.10;;;4.30;;
20531;SDS011;10424;52.102;8.084;2023-07-29T00:39:25;5.68;;;4.47;;
20531;SDS011;10424;52.102;8.084;2023-07-29T00:41:53;5.30;;;4.05;;
20531;SDS011;10424;52.102;8.084;2023-07-29T00:44:21;5.22;;;4.53;;
20531;SDS011;10424;52.102;8.084;2023-07-29T00:46:49;9.07;;;4.55;;
20531;SDS011;10424;52.102;8.084;2023-07-29T00:49:16;6.63;;;4.53;;
20531;SDS011;10424;52.102;8.084;2023-07-29T00:51:44;5.40;;;4.68;;
20531;SDS011;10424;52.102;8.084;2023-07-29T00:54:11;6.47;;;4.40;;
20531;SDS011;10424;52.102;8.084;2023-07-29T00:56:38;5.85;;;4.63;;
20531;SDS011;10424;52.102;8.084;2023-07-29T00:59:06;7.72;;;4.55;;
20531;SDS011;10424;52.102;8.084;2023-07-29T01:01:35;6.57;;;4.38;;
20531;SDS011;10424;52.102;8.084;2023-07-29T01:04:02;5.15;;;4.65;;
20531;SDS011;10424;52.102;8.084;2023-07-29T01:06:33;7.05;;;4.63;;
20531;SDS011;10424;52.102;8.084;2023-07-29T01:09:03;5.20;;;4.50;;
20531;SDS011;10424;52.102;8.084;2023-07-29T01:11:33;7.32;;;4.53;;
20531;SDS011;10424;52.102;8.084;2023-07-29T01:14:04;6.75;;;4.28;;
20531;SDS011;10424;52.102;8.084;2023-07-29T01:16:33;6.60;;;4.35;;
20531;SDS011;10424;52.102;8.084;2023-07-29T01:19:05;7.65;;;4.43;;
20531;SDS011;10424;52.102;8.084;2023-07-29T01:21:33;4.90;;;4.13;;
20531;SDS011;10424;52.102;8.084;2023-07-29T01:24:04;5.35;;;4.50;;
20531;SDS011;10424;52.102;8.084;2023-07-29T01:26:31;6.72;;;4.38;;
20531;SDS011;10424;52.102;8.084;2023-07-29T01:28:58;6.10;;;4.75;;
20531;SDS011;10424;52.102;8.084;2023-07-29T01:31:27;7.80;;;4.68;;
20531;SDS011;10424;52.102;8.084;2023-07-29T01:33:56;6.65;;;4.50;;
20531;SDS011;10424;52.102;8.084;2023-07-29T01:36:25;6.43;;;4.78;;
20531;SDS011;10424;52.102;8.084;2023-07-29T01:38:54;6.97;;;5.00;;
20531;SDS011;10424;52.102;8.084;2023-07-29T01:41:24;6.00;;;4.75;;
20531;SDS011;10424;52.102;8.084;2023-07-29T01:43:52;7.55;;;4.78;;
20531;SDS011;10424;52.102;8.084;2023-07-29T01:46:19;9.05;;;5.20;;
20531;SDS011;10424;52.102;8.084;2023-07-29T01:48:47;5.35;;;4.50;;
20531;SDS011;10424;52.102;8.084;2023-07-29T01:51:14;7.13;;;4.68;;
20531;SDS011;10424;52.102;8.084;2023-07-29T01:53:41;6.18;;;4.38;;
20531;SDS011;10424;52.102;8.084;2023-07-29T01:56:08;9.93;;;4.90;;
20531;SDS011;10424;52.102;8.084;2023-07-29T01:58:37;6.88;;;4.93;;
20531;SDS011;10424;52.102;8.084;2023-07-29T02:01:05;7.20;;;5.15;;
20531;SDS011;10424;52.102;8.084;2023-07-29T02:03:32;5.93;;;5.10;;
20531;SDS011;10424;52.102;8.084;2023-07-29T02:05:59;8.43;;;4.95;;
20531;SDS011;10424;52.102;8.084;2023-07-29T02:08:26;5.60;;;4.70;;
20531;SDS011;10424;52.102;8.084;2023-07-29T02:10:54;6.55;;;5.25;;
20531;SDS011;10424;52.102;8.084;2023-07-29T02:13:21;6.20;;;5.00;;
20531;SDS011;10424;52.102;8.084;2023-07-29T02:15:50;6.60;;;5.00;;
20531;SDS011;10424;52.102;8.084;2023-07-29T02:18:17;8.10;;;5.18;;
20531;SDS011;10424;52.102;8.084;2023-07-29T02:20:45;6.85;;;4.72;;
20531;SDS011;10424;52.102;8.084;2023-07-29T02:23:14;7.57;;;4.90;;
20531;SDS011;10424;52.102;8.084;2023-07-29T02:25:42;6.00;;;5.05;;
20531;SDS011;10424;52.102;8.084;2023-07-29T02:28:09;5.32;;;4.57;;
20531;SDS011;10424;52.102;8.084;2023-07-29T02:30:36;6.18;;;4.68;;
20531;SDS011;10424;52.102;8.084;2023-07-29T02:33:05;5.95;;;5.10;;
20531;SDS011;10424;52.102;8.084;2023-07-29T02:35:33;6.07;;;4.93;;
20531;SDS011;10424;52.102;8.084;2023-07-29T02:38:00;7.22;;;5.10;;
20531;SDS011;10424;52.102;8.084;2023-07-29T02:40:27;7.50;;;5.13;;
20531;SDS011;10424;52.102;8.084;2023-07-29T02:42:54;6.85;;;4.95;;
20531;SDS011;10424;52.102;8.084;2023-07-29T02:45:22;6.40;;;5.05;;
20531;SDS011;10424;52.102;8.084;2023-07-29T02:47:49;7.28;;;5.05;;
20531;SDS011;10424;52.102;8.084;2023-07-29T02:50:18;7.95;;;5.15;;
20531;SDS011;10424;52.102;8.084;2023-07-29T02:52:45;6.70;;;5.10;;
20531;SDS011;10424;52.102;8.084;2023-07-29T02:55:12;6.93;;;4.68;;
20531;SDS011;10424;52.102;8.084;2023-07-29T02:57:40;7.93;;;5.20;;
20531;SDS011;10424;52.102;8.084;2023-07-29T03:00:07;8.65;;;5.20;;
20531;SDS011;10424;52.102;8.084;2023-07-29T03:02:36;7.03;;;5.05;;
20531;SDS011;10424;52.102;8.084;2023-07-29T03:05:03;7.63;;;5.07;;
20531;SDS011;10424;52.102;8.084;2023-07-29T03:07:32;6.05;;;4.55;;
20531;SDS011;10424;52.102;8.084;2023-07-29T03:10:00;6.05;;;4.88;;
20531;SDS011;10424;52.102;8.084;2023-07-29T03:12:27;7.32;;;4.95;;
20531;SDS011;10424;52.102;8.084;2023-07-29T03:14:54;8.30;;;5.22;;
20531;SDS011;10424;52.102;8.084;2023-07-29T03:17:21;7.18;;;5.15;;
20531;SDS011;10424;52.102;8.084;2023-07-29T03:19:49;6.50;;;5.20;;
20531;SDS011;10424;52.102;8.084;2023-07-29T03:22:16;6.70;;;4.80;;
20531;SDS011;10424;52.102;8.084;2023-07-29T03:24:45;5.70;;;5.00;;
20531;SDS011;10424;52.102;8.084;2023-07-29T03:27:12;6.85;;;5.20;;
20531;SDS011;10424;52.102;8.084;2023-07-29T03:29:41;5.85;;;4.80;;
20531;SDS011;10424;52.102;8.084;2023-07-29T03:32:08;9.27;;;5.10;;
20531;SDS011;10424;52.102;8.084;2023-07-29T03:34:35;6.65;;;4.95;;
20531;SDS011;10424;52.102;8.084;2023-07-29T03:37:03;6.55;;;5.07;;
20531;SDS011;10424;52.102;8.084;2023-07-29T03:39:31;7.45;;;5.25;;
20531;SDS011;10424;52.102;8.084;2023-07-29T03:42:00;5.63;;;4.70;;
20531;SDS011;10424;52.102;8.084;2023-07-29T03:44:31;6.35;;;5.50;;
20531;SDS011;10424;52.102;8.084;2023-07-29T03:46:58;6.55;;;5.45;;
20531;SDS011;10424;52.102;8.084;2023-07-29T03:49:26;7.65;;;4.80;;
20531;SDS011;10424;52.102;8.084;2023-07-29T03:51:53;6.40;;;5.15;;
20531;SDS011;10424;52.102;8.084;2023-07-29T03:54:21;7.18;;;5.32;;
20531;SDS011;10424;52.102;8.084;2023-07-29T03:56:48;6.32;;;4.95;;
20531;SDS011;10424;52.102;8.084;2023-07-29T03:59:17;7.65;;;5.13;;
20531;SDS011;10424;52.102;8.084;2023-07-29T04:01:44;8.27;;;5.18;;
20531;SDS011;10424;52.102;8.084;2023-07-29T04:04:12;6.53;;;5.20;;
20531;SDS011;10424;52.102;8.084;2023-07-29T04:06:39;6.35;;;5.10;;
20531;SDS011;10424;52.102;8.084;2023-07-29T04:09:06;9.35;;;5.43;;
20531;SDS011;10424;52.102;8.084;2023-07-29T04:11:34;6.22;;;5.15;;
20531;SDS011;10424;52.102;8.084;2023-07-29T04:14:01;6.28;;;5.03;;
20531;SDS011;10424;52.102;8.084;2023-07-29T04:16:30;6.80;;;5.40;;
20531;SDS011;10424;52.102;8.084;2023-07-29T04:18:57;6.43;;;5.40;;
20531;SDS011;10424;52.102;8.084;2023-07-29T04:21:24;6.78;;;5.32;;
20531;SDS011;10424;52.102;8.084;2023-07-29T04:23:52;7.45;;;5.30;;
20531;SDS011;10424;52.102;8.084;2023-07-29T04:26:19;7.82;;;5.47;;
20531;SDS011;10424;52.102;8.084;2023-07-29T04:28:46;5.82;;;5.22;;
20531;SDS011;10424;52.102;8.084;2023-07-29T04:31:14;7.63;;;5.45;;
20531;SDS011;10424;52.102;8.084;2023-07-29T04:33:42;6.88;;;5.35;;
20531;SDS011;10424;52.102;8.084;2023-07-29T04:36:10;9.40;;;6.05;;
20531;SDS011;10424;52.102;8.084;2023-07-29T04:38:37;6.28;;;5.10;;
20531;SDS011;10424;52.102;8.084;2023-07-29T04:41:04;6.72;;;5.20;;
20531;SDS011;10424;52.102;8.084;2023-07-29T04:43:34;7.72;;;5.60;;
20531;SDS011;10424;52.102;8.084;2023-07-29T04:46:01;8.32;;;5.70;;
20531;SDS011;10424;52.102;8.084;2023-07-29T04:48:28;7.95;;;5.40;;
20531;SDS011;10424;52.102;8.084;2023-07-29T04:50:57;5.50;;;4.68;;
20531;SDS011;10424;52.102;8.084;2023-07-29T04:53:24;6.45;;;5.30;;
20531;SDS011;10424;52.102;8.084;2023-07-29T04:55:51;6.35;;;5.13;;
20531;SDS011;10424;52.102;8.084;2023-07-29T04:58:19;6.30;;;5.35;;
20531;SDS011;10424;52.102;8.084;2023-07-29T05:00:46;8.63;;;5.47;;
20531;SDS011;10424;52.102;8.084;2023-07-29T05:03:13;7.15;;;5.43;;
20531;SDS011;10424;52.102;8.084;2023-07-29T05:05:41;6.28;;;5.53;;
20531;SDS011;10424;52.102;8.084;2023-07-29T05:08:10;7.88;;;5.45;;
20531;SDS011;10424;52.102;8.084;2023-07-29T05:10:37;8.48;;;5.20;;
20531;SDS011;10424;52.102;8.084;2023-07-29T05:13:04;6.40;;;5.57;;
20531;SDS011;10424;52.102;8.084;2023-07-29T05:15:32;7.03;;;5.60;;
20531;SDS011;10424;52.102;8.084;2023-07-29T05:17:59;6.60;;;5.22;;
20531;SDS011;10424;52.102;8.084;2023-07-29T05:20:26;8.82;;;5.00;;
20531;SDS011;10424;52.102;8.084;2023-07-29T05:22:54;8.52;;;5.40;;
20531;SDS011;10424;52.102;8.084;2023-07-29T05:25:22;6.45;;;5.43;;
20531;SDS011;10424;52.102;8.084;2023-07-29T05:27:50;7.72;;;5.35;;
20531;SDS011;10424;52.102;8.084;2023-07-29T05:30:17;7.60;;;5.60;;
20531;SDS011;10424;52.102;8.084;2023-07-29T05:32:44;7.78;;;5.22;;
20531;SDS011;10424;52.102;8.084;2023-07-29T05:35:11;12.02;;;5.55;;
20531;SDS011;10424;52.102;8.084;2023-07-29T05:37:40;5.85;;;5.20;;
20531;SDS011;10424;52.102;8.084;2023-07-29T05:40:07;7.00;;;4.63;;
20531;SDS011;10424;52.102;8.084;2023-07-29T05:42:36;9.15;;;5.00;;
20531;SDS011;10424;52.102;8.084;2023-07-29T05:45:04;7.43;;;5.07;;
20531;SDS011;10424;52.102;8.084;2023-07-29T05:47:31;6.53;;;5.47;;
20531;SDS011;10424;52.102;8.084;2023-07-29T05:49:58;6.60;;;5.30;;
20531;SDS011;10424;52.102;8.084;2023-07-29T05:52:29;5.35;;;4.82;;
20531;SDS011;10424;52.102;8.084;2023-07-29T05:54:56;7.93;;;5.25;;
20531;SDS011;10424;52.102;8.084;2023-07-29T05:57:24;6.03;;;5.35;;
20531;SDS011;10424;52.102;8.084;2023-07-29T05:59:52;6.53;;;5.30;;
20531;SDS011;10424;52.102;8.084;2023-07-29T06:02:20;6.20;;;5.43;;
20531;SDS011;10424;52.102;8.084;2023-07-29T06:04:47;7.00;;;5.57;;
20531;SDS011;10424;52.102;8.084;2023-07-29T06:07:14;8.13;;;6.00;;
20531;SDS011;10424;52.102;8.084;2023-07-29T06:09:42;7.95;;;5.70;;
20531;SDS011;10424;52.102;8.084;2023-07-29T06:12:10;8.35;;;6.38;;
20531;SDS011;10424;52.102;8.084;2023-07-29T06:14:37;10.35;;;6.40;;
20531;SDS011;10424;52.102;8.084;2023-07-29T06:17:06;7.90;;;6.05;;
20531;SDS011;10424;52.102;8.084;2023-07-29T06:19:36;9.52;;;7.85;;
20531;SDS011;10424;52.102;8.084;2023-07-29T06:22:04;11.02;;;6.63;;
20531;SDS011;10424;52.102;8.084;2023-07-29T06:24:32;11.55;;;7.30;;
20531;SDS011;10424;52.102;8.084;2023-07-29T06:26:59;10.63;;;7.70;;
20531;SDS011;10424;52.102;8.084;2023-07-29T06:29:26;18.73;;;11.88;;
20531;SDS011;10424;52.102;8.084;2023-07-29T06:31:54;16.77;;;10.70;;
20531;SDS011;10424;52.102;8.084;2023-07-29T06:34:22;13.80;;;9.98;;
20531;SDS011;10424;52.102;8.084;2023-07-29T06:36:50;11.25;;;8.77;;
20531;SDS011;10424;52.102;8.084;2023-07-29T06:39:17;13.35;;;9.18;;
20531;SDS011;10424;52.102;8.084;2023-07-29T06:41:45;12.25;;;9.82;;
20531;SDS011;10424;52.102;8.084;2023-07-29T06:44:12;13.98;;;9.55;;
20531;SDS011;10424;52.102;8.084;2023-07-29T06:46:39;13.60;;;10.20;;
20531;SDS011;10424;52.102;8.084;2023-07-29T06:49:07;14.48;;;10.32;;
20531;SDS011;10424;52.102;8.084;2023-07-29T06:51:36;14.10;;;10.13;;
20531;SDS011;10424;52.102;8.084;2023-07-29T06:54:03;12.73;;;9.93;;
20531;SDS011;10424;52.102;8.084;2023-07-29T06:56:30;12.55;;;9.65;;
20531;SDS011;10424;52.102;8.084;2023-07-29T06:58:57;13.45;;;9.77;;
20531;SDS011;10424;52.102;8.084;2023-07-29T07:01:25;13.20;;;10.25;;
20531;SDS011;10424;52.102;8.084;2023-07-29T07:03:52;11.00;;;9.10;;
20531;SDS011;10424;52.102;8.084;2023-07-29T07:06:20;14.25;;;9.30;;
20531;SDS011;10424;52.102;8.084;2023-07-29T07:08:51;11.00;;;8.75;;
20531;SDS011;10424;52.102;8.084;2023-07-29T07:11:18;12.80;;;8.55;;
20531;SDS011;10424;52.102;8.084;2023-07-29T07:13:45;13.43;;;8.68;;
20531;SDS011;10424;52.102;8.084;2023-07-29T07:16:13;8.80;;;7.85;;
20531;SDS011;10424;52.102;8.084;2023-07-29T07:18:40;8.80;;;7.38;;
20531;SDS011;10424;52.102;8.084;2023-07-29T07:21:08;10.23;;;7.20;;
20531;SDS011;10424;52.102;8.084;2023-07-29T07:23:35;7.68;;;6.85;;
20531;SDS011;10424;52.102;8.084;2023-07-29T07:26:04;8.18;;;6.60;;
20531;SDS011;10424;52.102;8.084;2023-07-29T07:28:31;6.95;;;5.93;;
20531;SDS011;10424;52.102;8.084;2023-07-29T07:30:58;6.95;;;5.68;;
20531;SDS011;10424;52.102;8.084;2023-07-29T07:33:26;6.55;;;5.85;;
20531;SDS011;10424;52.102;8.084;2023-07-29T07:35:53;8.77;;;5.63;;
20531;SDS011;10424;52.102;8.084;2023-07-29T07:38:20;6.18;;;5.57;;
20531;SDS011;10424;52.102;8.084;2023-07-29T07:40:52;7.68;;;5.68;;
20531;SDS011;10424;52.102;8.084;2023-07-29T07:43:21;5.70;;;4.60;;
20531;SDS011;10424;52.102;8.084;2023-07-29T07:45:49;5.72;;;4.53;;
20531;SDS011;10424;52.102;8.084;2023-07-29T07:48:16;5.03;;;4.40;;
20531;SDS011;10424;52.102;8.084;2023-07-29T07:50:45;5.40;;;4.50;;
20531;SDS011;10424;52.102;8.084;2023-07-29T07:53:12;5.25;;;3.78;;
20531;SDS011;10424;52.102;8.084;2023-07-29T07:55:39;4.18;;;3.78;;
20531;SDS011;10424;52.102;8.084;2023-07-29T07:58:07;2.78;;;2.03;;
20531;SDS011;10424;52.102;8.084;2023-07-29T08:00:35;1.50;;;1.30;;
20531;SDS011;10424;52.102;8.084;2023-07-29T08:03:03;1.30;;;0.95;;
20531;SDS011;10424;52.102;8.084;2023-07-29T08:05:31;1.40;;;1.00;;
20531;SDS011;10424;52.102;8.084;2023-07-29T08:07:59;1.10;;;0.90;;
20531;SDS011;10424;52.102;8.084;2023-07-29T08:10:26;1.75;;;1.10;;
20531;SDS011;10424;52.102;8.084;2023-07-29T08:12:53;1.27;;;0.93;;
20531;SDS011;10424;52.102;8.084;2023-07-29T08:15:21;1.30;;;1.10;;
20531;SDS011;10424;52.102;8.084;2023-07-29T08:17:49;1.15;;;1.00;;
20531;SDS011;10424;52.102;8.084;2023-07-29T08:20:17;1.52;;;1.17;;
20531;SDS011;10424;52.102;8.084;2023-07-29T08:22:44;1.25;;;1.15;;
20531;SDS011;10424;52.102;8.084;2023-07-29T08:25:11;1.38;;;1.10;;
20531;SDS011;10424;52.102;8.084;2023-07-29T08:27:39;1.45;;;1.20;;
20531;SDS011;10424;52.102;8.084;2023-07-29T08:30:07;1.98;;;1.15;;
20531;SDS011;10424;52.102;8.084;2023-07-29T08:32:35;2.20;;;1.10;;
20531;SDS011;10424;52.102;8.084;2023-07-29T08:35:04;1.60;;;1.30;;
20531;SDS011;10424;52.102;8.084;2023-07-29T08:37:31;1.60;;;1.20;;
20531;SDS011;10424;52.102;8.084;2023-07-29T08:39:59;1.70;;;1.30;;
20531;SDS011;10424;52.102;8.084;2023-07-29T08:42:27;1.40;;;1.10;;
20531;SDS011;10424;52.102;8.084;2023-07-29T08:44:55;1.80;;;1.00;;
20531;SDS011;10424;52.102;8.084;2023-07-29T08:47:23;1.23;;;0.90;;
20531;SDS011;10424;52.102;8.084;2023-07-29T08:49:50;1.20;;;1.05;;
20531;SDS011;10424;52.102;8.084;2023-07-29T08:52:20;1.00;;;0.90;;
20531;SDS011;10424;52.102;8.084;2023-07-29T08:54:47;1.27;;;0.80;;
20531;SDS011;10424;52.102;8.084;2023-07-29T08:57:15;1.60;;;1.00;;
20531;SDS011;10424;52.102;8.084;2023-07-29T08:59:42;1.10;;;1.00;;
20531;SDS011;10424;52.102;8.084;2023-07-29T09:02:10;1.30;;;1.00;;
20531;SDS011;10424;52.102;8.084;2023-07-29T09:04:37;1.25;;;0.90;;
20531;SDS011;10424;52.102;8.084;2023-07-29T09:07:05;1.00;;;0.90;;
20531;SDS011;10424;52.102;8.084;2023-07-29T09:09:34;1.10;;;0.90;;
20531;SDS011;10424;52.102;8.084;2023-07-29T09:12:01;1.30;;;1.00;;
20531;SDS011;10424;52.102;8.084;2023-07-29T09:14:28;2.10;;;0.95;;
20531;SDS011;10424;52.102;8.084;2023-07-29T09:16:56;1.00;;;0.90;;
20531;SDS011;10424;52.102;8.084;2023-07-29T09:19:24;0.93;;;0.82;;
20531;SDS011;10424;52.102;8.084;2023-07-29T09:21:52;1.15;;;0.90;;
20531;SDS011;10424;52.102;8.084;2023-07-29T09:24:20;2.25;;;0.80;;
20531;SDS011;10424;52.102;8.084;2023-07-29T09:26:52;2.55;;;0.90;;
20531;SDS011;10424;52.102;8.084;2023-07-29T09:29:21;1.55;;;0.90;;
20531;SDS011;10424;52.102;8.084;2023-07-29T09:31:49;1.00;;;0.82;;
20531;SDS011;10424;52.102;8.084;2023-07-29T09:34:16;2.80;;;0.90;;
20531;SDS011;10424;52.102;8.084;2023-07-29T09:36:44;1.90;;;1.00;;
20531;SDS011;10424;52.102;8.084;2023-07-29T09:39:12;1.30;;;1.00;;
20531;SDS011;10424;52.102;8.084;2023-07-29T09:41:39;1.00;;;0.90;;
20531;SDS011;10424;52.102;8.084;2023-07-29T09:44:10;1.77;;;0.80;;
20531;SDS011;10424;52.102;8.084;2023-07-29T09:46:37;0.95;;;0.88;;
20531;SDS011;10424;52.102;8.084;2023-07-29T09:49:06;1.38;;;0.75;;
20531;SDS011;10424;52.102;8.084;2023-07-29T09:51:36;0.95;;;0.85;;
20531;SDS011;10424;52.102;8.084;2023-07-29T09:54:05;1.52;;;1.00;;
20531;SDS011;10424;52.102;8.084;2023-07-29T09:56:32;2.83;;;0.90;;
20531;SDS011;10424;52.102;8.084;2023-07-29T09:58:59;0.98;;;0.90;;
20531;SDS011;10424;52.102;8.084;2023-07-29T10:01:28;1.25;;;0.80;;
20531;SDS011;10424;52.102;8.084;2023-07-29T10:03:56;0.75;;;0.70;;
20531;SDS011;10424;52.102;8.084;2023-07-29T10:06:25;1.30;;;0.90;;
20531;SDS011;10424;52.102;8.084;2023-07-29T10:08:53;1.67;;;0.80;;
20531;SDS011;10424;52.102;8.084;2023-07-29T10:11:21;0.60;;;0.60;;
20531;SDS011;10424;52.102;8.084;2023-07-29T10:13:50;0.80;;;0.80;;
20531;SDS011;10424;52.102;8.084;2023-07-29T10:16:17;3.03;;;0.73;;
20531;SDS011;10424;52.102;8.084;2023-07-29T10:18:46;5.70;;;2.28;;
20531;SDS011;10424;52.102;8.084;2023-07-29T10:21:14;1.55;;;1.00;;
20531;SDS011;10424;52.102;8.084;2023-07-29T10:23:42;3.50;;;0.80;;
20531;SDS011;10424;52.102;8.084;2023-07-29T10:26:10;1.08;;;0.90;;
20531;SDS011;10424;52.102;8.084;2023-07-29T10:28:39;1.08;;;0.90;;
20531;SDS011;10424;52.102;8.084;2023-07-29T10:31:07;0.90;;;0.65;;
20531;SDS011;10424;52.102;8.084;2023-07-29T10:33:35;1.35;;;0.70;;
20531;SDS011;10424;52.102;8.084;2023-07-29T10:36:06;1.15;;;0.65;;
20531;SDS011;10424;52.102;8.084;2023-07-29T10:38:33;0.80;;;0.70;;
20531;SDS011;10424;52.102;8.084;2023-07-29T10:41:01;0.60;;;0.60;;
20531;SDS011;10424;52.102;8.084;2023-07-29T10:43:31;0.70;;;0.65;;
20531;SDS011;10424;52.102;8.084;2023-07-29T10:46:14;0.95;;;0.60;;
20531;SDS011;10424;52.102;8.084;2023-07-29T10:48:42;1.05;;;0.52;;
20531;SDS011;10424;52.102;8.084;2023-07-29T10:51:23;1.73;;;0.70;;
20531;SDS011;10424;52.102;8.084;2023-07-29T10:53:51;0.82;;;0.60;;
20531;SDS011;10424;52.102;8.084;2023-07-29T10:56:24;0.90;;;0.70;;
20531;SDS011;10424;52.102;8.084;2023-07-29T10:58:51;0.93;;;0.75;;
20531;SDS011;10424;52.102;8.084;2023-07-29T11:01:26;1.17;;;0.77;;
20531;SDS011;10424;52.102;8.084;2023-07-29T11:04:01;0.90;;;0.80;;
20531;SDS011;10424;52.102;8.084;2023-07-29T11:06:30;0.90;;;0.70;;
20531;SDS011;10424;52.102;8.084;2023-07-29T11:08:57;1.65;;;0.70;;
20531;SDS011;10424;52.102;8.084;2023-07-29T11:11:24;0.93;;;0.70;;
20531;SDS011;10424;52.102;8.084;2023-07-29T11:13:52;0.90;;;0.80;;
20531;SDS011;10424;52.102;8.084;2023-07-29T11:16:19;0.95;;;0.60;;
20531;SDS011;10424;52.102;8.084;2023-07-29T11:18:47;2.20;;;0.68;;
20531;SDS011;10424;52.102;8.084;2023-07-29T11:21:15;2.28;;;0.90;;
20531;SDS011;10424;52.102;8.084;2023-07-29T11:23:44;1.48;;;0.68;;
20531;SDS011;10424;52.102;8.084;2023-07-29T11:26:12;1.50;;;0.70;;
20531;SDS011;10424;52.102;8.084;2023-07-29T11:28:42;1.00;;;0.80;;
20531;SDS011;10424;52.102;8.084;2023-07-29T11:31:10;0.70;;;0.57;;
20531;SDS011;10424;52.102;8.084;2023-07-29T11:33:38;0.73;;;0.60;;
20531;SDS011;10424;52.102;8.084;2023-07-29T11:36:05;0.65;;;0.65;;
20531;SDS011;10424;52.102;8.084;2023-07-29T11:38:33;2.03;;;0.70;;
20531;SDS011;10424;52.102;8.084;2023-07-29T11:41:04;0.95;;;0.65;;
20531;SDS011;10424;52.102;8.084;2023-07-29T11:43:34;2.90;;;0.73;;
20531;SDS011;10424;52.102;8.084;2023-07-29T11:46:02;1.58;;;0.82;;
20531;SDS011;10424;52.102;8.084;2023-07-29T11:48:31;0.80;;;0.73;;
20531;SDS011;10424;52.102;8.084;2023-07-29T11:50:58;0.90;;;0.80;;
20531;SDS011;10424;52.102;8.084;2023-07-29T11:53:26;1.10;;;0.80;;
20531;SDS011;10424;52.102;8.084;2023-07-29T11:55:55;1.17;;;0.80;;
20531;SDS011;10424;52.102;8.084;2023-07-29T11:58:23;0.80;;;0.80;;
20531;SDS011;10424;52.102;8.084;2023-07-29T12:00:51;0.82;;;0.80;;
20531;SDS011;10424;52.102;8.084;2023-07-29T12:03:18;1.20;;;0.90;;
20531;SDS011;10424;52.102;8.084;2023-07-29T12:05:46;1.85;;;0.70;;
20531;SDS011;10424;52.102;8.084;2023-07-29T12:08:13;2.28;;;0.90;;
20531;SDS011;10424;52.102;8.084;2023-07-29T12:10:41;0.90;;;0.90;;
20531;SDS011;10424;52.102;8.084;2023-07-29T12:13:08;2.85;;;0.90;;
20531;SDS011;10424;52.102;8.084;2023-07-29T12:15:37;1.30;;;0.90;;
20531;SDS011;10424;52.102;8.084;2023-07-29T12:18:05;2.85;;;0.90;;
20531;SDS011;10424;52.102;8.084;2023-07-29T12:20:33;1.17;;;0.90;;
20531;SDS011;10424;52.102;8.084;2023-07-29T12:23:01;1.30;;;1.00;;
20531;SDS011;10424;52.102;8.084;2023-07-29T12:25:31;2.30;;;1.08;;
20531;SDS011;10424;52.102;8.084;2023-07-29T12:28:01;1.20;;;1.10;;
20531;SDS011;10424;52.102;8.084;2023-07-29T12:30:29;1.50;;;1.05;;
20531;SDS011;10424;52.102;8.084;2023-07-29T12:32:58;2.40;;;0.90;;
20531;SDS011;10424;52.102;8.084;2023-07-29T12:35:33;1.48;;;1.20;;
20531;SDS011;10424;52.102;8.084;2023-07-29T12:38:00;1.45;;;1.15;;
20531;SDS011;10424;52.102;8.084;2023-07-29T12:40:28;2.85;;;1.30;;
20531;SDS011;10424;52.102;8.084;2023-07-29T12:42:55;1.58;;;1.20;;
20531;SDS011;10424;52.102;8.084;2023-07-29T12:45:23;1.20;;;1.10;;
20531;SDS011;10424;52.102;8.084;2023-07-29T12:47:52;2.55;;;1.10;;
20531;SDS011;10424;52.102;8.084;2023-07-29T12:50:21;1.52;;;1.15;;
20531;SDS011;10424;52.102;8.084;2023-07-29T12:52:48;1.13;;;1.02;;
20531;SDS011;10424;52.102;8.084;2023-07-29T12:55:15;1.20;;;1.02;;
20531;SDS011;10424;52.102;8.084;2023-07-29T12:57:42;1.42;;;1.05;;
20531;SDS011;10424;52.102;8.084;2023-07-29T13:00:10;1.38;;;1.10;;
20531;SDS011;10424;52.102;8.084;2023-07-29T13:02:38;1.10;;;1.00;;
20531;SDS011;10424;52.102;8.084;2023-07-29T13:05:07;1.42;;;1.02;;
20531;SDS011;10424;52.102;8.084;2023-07-29T13:07:36;1.15;;;1.00;;
20531;SDS011;10424;52.102;8.084;2023-07-29T13:10:04;1.38;;;1.10;;
20531;SDS011;10424;52.102;8.084;2023-07-29T13:12:31;1.67;;;1.00;;
20531;SDS011;10424;52.102;8.084;2023-07-29T13:14:59;1.50;;;1.15;;
20531;SDS011;10424;52.102;8.084;2023-07-29T13:17:26;1.35;;;1.13;;
20531;SDS011;10424;52.102;8.084;2023-07-29T13:19:53;1.13;;;1.02;;
20531;SDS011;10424;52.102;8.084;2023-07-29T13:22:21;1.85;;;1.10;;
20531;SDS011;10424;52.102;8.084;2023-07-29T13:24:50;1.35;;;1.15;;
20531;SDS011;10424;52.102;8.084;2023-07-29T13:27:17;1.40;;;1.10;;
20531;SDS011;10424;52.102;8.084;2023-07-29T13:29:44;1.15;;;0.98;;
20531;SDS011;10424;52.102;8.084;2023-07-29T13:32:12;2.00;;;1.20;;
20531;SDS011;10424;52.102;8.084;2023-07-29T13:34:39;2.25;;;1.10;;
20531;SDS011;10424;52.102;8.084;2023-07-29T13:37:06;2.25;;;1.10;;
20531;SDS011;10424;52.102;8.084;2023-07-29T13:39:34;1.45;;;1.10;;
20531;SDS011;10424;52.102;8.084;2023-07-29T13:42:03;1.13;;;1.00;;
20531;SDS011;10424;52.102;8.084;2023-07-29T13:44:30;1.55;;;1.10;;
20531;SDS011;10424;52.102;8.084;2023-07-29T13:46:57;1.80;;;1.42;;
20531;SDS011;10424;52.102;8.084;2023-07-29T13:49:24;1.75;;;1.15;;
20531;SDS011;10424;52.102;8.084;2023-07-29T13:51:52;1.70;;;1.35;;
20531;SDS011;10424;52.102;8.084;2023-07-29T13:54:19;3.55;;;1.40;;
20531;SDS011;10424;52.102;8.084;2023-07-29T13:56:47;1.42;;;1.33;;
20531;SDS011;10424;52.102;8.084;2023-07-29T13:59:15;1.67;;;1.30;;
20531;SDS011;10424;52.102;8.084;2023-07-29T14:01:43;4.55;;;1.42;;
20531;SDS011;10424;52.102;8.084;2023-07-29T14:04:10;2.70;;;1.60;;
20531;SDS011;10424;52.102;8.084;2023-07-29T14:06:37;4.95;;;1.50;;
20531;SDS011;10424;52.102;8.084;2023-07-29T14:09:04;1.65;;;1.50;;
20531;SDS011;10424;52.102;8.084;2023-07-29T14:11:32;1.50;;;1.40;;
20531;SDS011;10424;52.102;8.084;2023-07-29T14:13:59;3.20;;;1.70;;
20531;SDS011;10424;52.102;8.084;2023-07-29T14:16:28;1.65;;;1.55;;
20531;SDS011;10424;52.102;8.084;2023-07-29T14:18:55;2.40;;;1.55;;
20531;SDS011;10424;52.102;8.084;2023-07-29T14:21:22;1.95;;;1.52;;
20531;SDS011;10424;52.102;8.084;2023-07-29T14:23:50;3.67;;;1.50;;
20531;SDS011;10424;52.102;8.084;2023-07-29T14:26:18;3.35;;;1.50;;
20531;SDS011;10424;52.102;8.084;2023-07-29T14:28:45;1.77;;;1.58;;
20531;SDS011;10424;52.102;8.084;2023-07-29T14:31:14;2.85;;;1.50;;
20531;SDS011;10424;52.102;8.084;2023-07-29T14:33:43;1.83;;;1.67;;
20531;SDS011;10424;52.102;8.084;2023-07-29T14:36:10;2.65;;;1.70;;
20531;SDS011;10424;52.102;8.084;2023-07-29T14:38:38;3.08;;;1.70;;
20531;SDS011;10424;52.102;8.084;2023-07-29T14:41:05;3.47;;;1.92;;
20531;SDS011;10424;52.102;8.084;2023-07-29T14:43:33;2.47;;;1.80;;
20531;SDS011;10424;52.102;8.084;2023-07-29T14:46:00;3.65;;;1.80;;
20531;SDS011;10424;52.102;8.084;2023-07-29T14:48:28;4.10;;;1.80;;